A 511 Airport
RKSG : now visible

Airfield :











YOU CAN JOIN US ON...

 
LOGIN :

Register | Disclaimer

   EN    FR    IT 

 









Legend :    VFR   Marginal VFR   IFR   Intensive IFR   Very Intensive IFR
Visi :
Ceiling :
>= 8 km
>= 3000ft
5 to 8 km
1000 to 3000 ft
1500m to 5 km
500 to 1000 ft
800 to 1500m
200 to 500 ft
< 800m
< 200 ft
Symbols :   Thunderstorms  Fog  Heavy snow  Heavy precipitations  Wind > 20 kt






- Airport Elevation : 51 ft


RKSG - A 511

CURRENT METAR :
  • 211559Z 13006KT 6SM HZ BKN120 08/M06 A3037 RMK AO2A SLP288 T00751065 $

EXPIRED METARs :
  • 211455Z 11005KT 6SM HZ SCT100 BKN120 06/M03 A3040 RMK SLP298 T00641033 58013 $
  • 211356Z 07004KT 6SM HZ BKN090 06/M04 A3042 RMK SLP306 T00631044 $

TAF AMD TAF RKSG
Valid from the 21 at 11:00 until the 22 at 17:00 UTC


211146Z 2111/2217 09006KT 9000 HZ SCT050 BKN080 620804 QNH3042INS
BECMG 2114/2115 10006KT 9000 HZ SCT090 BKN120 QNH3040INS
BECMG 2123/2124 08006KT 8000 HZ SCT120 QNH3038INS
BECMG 2202/2203 09006KT 9999 NSW SKC QNH3036INS
BECMG 2208/2209 10006KT 9000 HZ SCT030 QNH3030INS TX13/2206Z TN04/2121Z



MET'MAP, your aeronautical weather chart ! - Copyright ORBIFLY December 2007 - Disclaimer

ORBIFLY MET'MAP TEAM :

Programming & Development : Alexandra Zaïnal
Concept & Development : Baudouin d'Aumeries
Co-Development & Prog : Marc-Olivier Méhu
Technical & hardware support : Manuel Goepfert

Contact : metmap@orbifly.com




SOURCES & CREDITS :

   NOAA       Earth
Advisory